Time;durP1;ratioP1;P1;durP2;ratioP2;P2;SDS_P1;SDS_P2;PMS_P1;PMS_P2;Temp;Humidity;BMP_temperature;BMP_pressure;BME280_temperature;BME280_humidity;BME280_pressure;Samples;Min_cycle;Max_cycle;Signal;HPM_P1;HPM_P2
2022/05/06 00:02:09;;;;;;;;;25.25;23.00;;;;;16.24;53.11;102036.16;5115385;27;45297;-68
2022/05/06 00:04:34;;;;;;;;;23.00;20.50;;;;;16.23;52.56;102039.72;5114635;27;46198;-69
2022/05/06 00:07:00;;;;;;;;;26.75;19.50;;;;;16.10;52.82;102033.16;5114828;27;45551;-68
2022/05/06 00:09:25;;;;;;;;;23.50;19.25;;;;;16.17;53.08;102045.00;5115139;27;45335;-68
2022/05/06 00:11:53;;;;;;;;;25.00;20.50;;;;;15.90;52.68;102004.78;5115816;27;45494;-67
2022/05/06 00:14:19;;;;;;;;;23.00;22.00;;;;;16.05;53.33;102032.09;5114928;27;45580;-69
2022/05/06 00:16:45;;;;;;;;;25.50;22.50;;;;;16.01;52.99;102025.72;5115048;27;45449;-69
2022/05/06 00:19:10;;;;;;;;;26.00;24.50;;;;;16.10;53.33;102032.22;5114297;27;45467;-67
2022/05/06 00:21:36;;;;;;;;;28.50;23.75;;;;;16.07;53.21;102022.28;5114930;27;45369;-67
2022/05/06 00:24:02;;;;;;;;;23.00;22.25;;;;;16.18;53.21;102034.19;5114339;27;45341;-68
2022/05/06 00:26:27;;;;;;;;;21.75;19.50;;;;;16.20;53.46;102035.19;5114300;27;45547;-66
2022/05/06 00:28:53;;;;;;;;;22.75;22.25;;;;;16.05;52.91;102020.41;5114369;27;45544;-67
2022/05/06 00:31:18;;;;;;;;;32.75;27.25;;;;;16.17;52.95;102034.19;5114471;27;45456;-68
2022/05/06 00:33:43;;;;;;;;;31.50;25.50;;;;;16.25;52.98;102042.44;5114644;27;45526;-67
2022/05/06 00:36:09;;;;;;;;;21.75;20.00;;;;;16.28;52.63;102050.63;5114700;27;45620;-68
2022/05/06 00:38:34;;;;;;;;;25.50;22.75;;;;;16.19;53.27;102051.31;5114337;27;48561;-68
2022/05/06 00:40:59;;;;;;;;;25.75;23.50;;;;;16.12;53.69;102046.63;5114635;27;45544;-67
2022/05/06 00:43:25;;;;;;;;;28.50;22.50;;;;;16.12;53.77;102042.16;5113553;27;57152;-66
2022/05/06 00:45:52;;;;;;;;;25.50;21.00;;;;;16.14;53.62;102042.22;5114244;27;45449;-66
2022/05/06 00:48:21;;;;;;;;;20.00;19.75;;;;;16.15;53.25;102050.34;5114456;27;45531;-67
2022/05/06 00:50:47;;;;;;;;;26.75;24.75;;;;;16.01;53.26;102020.31;5114543;27;45499;-67
2022/05/06 00:53:13;;;;;;;;;25.75;21.50;;;;;16.11;53.44;102048.44;5115519;27;45493;-66
2022/05/06 00:55:39;;;;;;;;;23.00;22.00;;;;;16.08;53.37;102042.94;5117362;27;45393;-70
2022/05/06 00:58:05;;;;;;;;;28.50;23.25;;;;;16.07;53.89;102042.91;5118065;27;45639;-68
2022/05/06 01:00:31;;;;;;;;;26.50;21.75;;;;;15.69;53.96;101978.16;5118149;27;45543;-67
2022/05/06 01:02:56;;;;;;;;;23.25;20.25;;;;;16.10;53.63;102037.59;5117580;27;46029;-68
2022/05/06 01:05:22;;;;;;;;;28.00;27.00;;;;;16.09;53.64;102044.78;5117605;27;55739;-68
2022/05/06 01:07:49;;;;;;;;;22.75;22.75;;;;;15.96;53.94;102022.00;5098821;27;45536;-67
2022/05/06 01:10:16;;;;;;;;;27.00;23.00;;;;;16.05;54.02;102034.78;5117719;27;45515;-68
2022/05/06 01:12:41;;;;;;;;;25.50;23.50;;;;;16.01;54.28;102022.13;5116998;27;46123;-67
2022/05/06 01:15:21;;;;;;;;;23.00;20.75;;;;;16.08;54.13;102031.28;5116759;27;59917;-66
2022/05/06 01:17:47;;;;;;;;;27.25;21.75;;;;;16.08;53.96;102028.56;5117974;27;45388;-67
2022/05/06 01:20:16;;;;;;;;;32.25;27.50;;;;;16.06;53.58;102041.13;5117474;27;45292;-67
2022/05/06 01:22:47;;;;;;;;;22.75;19.75;;;;;16.04;54.01;102038.38;5117021;27;45319;-67
2022/05/06 01:25:13;;;;;;;;;26.00;25.00;;;;;15.78;54.10;101989.22;5117091;27;45226;-67
2022/05/06 01:27:45;;;;;;;;;24.00;16.50;;;;;16.00;54.38;102033.75;5117065;27;45535;-68
2022/05/06 01:30:27;;;;;;;;;25.75;22.25;;;;;15.97;53.97;102037.31;5098957;27;45284;-68
2022/05/06 01:32:53;;;;;;;;;27.25;24.50;;;;;15.76;54.73;102007.13;5117274;27;46176;-68
2022/05/06 01:35:22;;;;;;;;;22.25;22.25;;;;;15.84;54.26;102033.41;5110905;27;45364;-68
2022/05/06 01:37:52;;;;;;;;;24.00;22.50;;;;;15.86;54.45;102044.22;5117581;27;45398;-67
2022/05/06 01:40:19;;;;;;;;;27.00;25.25;;;;;15.88;54.85;102037.06;5117514;27;45547;-68
2022/05/06 01:42:46;;;;;;;;;19.75;18.25;;;;;15.87;54.69;102031.63;5117228;27;46331;-67
2022/05/06 01:45:15;;;;;;;;;28.25;23.25;;;;;15.86;54.46;102030.75;5110717;27;45450;-68
2022/05/06 01:47:42;;;;;;;;;27.25;25.00;;;;;15.82;54.69;102029.75;5116979;27;45363;-67
2022/05/06 01:50:10;;;;;;;;;20.50;19.75;;;;;15.78;54.92;102018.84;5117589;27;45479;-68
2022/05/06 01:52:38;;;;;;;;;29.00;22.50;;;;;15.82;54.58;102029.75;5096885;27;46146;-67
2022/05/06 01:55:05;;;;;;;;;26.50;25.25;;;;;15.80;54.57;102031.47;5103447;27;45504;-68
2022/05/06 01:57:31;;;;;;;;;22.00;20.00;;;;;15.80;54.75;102036.88;5110288;27;45372;-67
2022/05/06 01:59:56;;;;;;;;;24.50;21.75;;;;;15.79;55.04;102032.38;5116722;27;45480;-68
2022/05/06 02:02:21;;;;;;;;;24.50;24.25;;;;;15.78;54.56;102033.22;5116417;27;58496;-67
2022/05/06 02:07:31;;;;;;;;;24.25;22.50;;;;;15.27;54.93;101956.44;5117109;27;45370;-67
2022/05/06 02:09:57;;;;;;;;;26.75;23.00;;;;;15.72;55.15;102038.41;5117442;27;45392;-67
2022/05/06 02:12:22;;;;;;;;;23.00;22.00;;;;;15.60;55.08;102016.56;5116613;27;46041;-67
2022/05/06 02:14:48;;;;;;;;;28.50;22.00;;;;;15.64;55.33;102031.91;5117026;27;45527;-68
2022/05/06 02:17:13;;;;;;;;;30.25;25.25;;;;;15.50;55.08;102010.03;5116559;27;45399;-67
2022/05/06 02:19:38;;;;;;;;;25.50;21.00;;;;;15.68;55.20;102041.03;5116935;27;45720;-68
2022/05/06 02:22:04;;;;;;;;;24.50;22.00;;;;;15.69;55.11;102042.81;5116157;27;46315;-68
2022/05/06 02:24:29;;;;;;;;;27.50;23.50;;;;;15.65;55.36;102037.34;5116445;27;45476;-68
2022/05/06 02:26:55;;;;;;;;;22.00;20.00;;;;;15.66;55.48;102036.50;5116644;27;45432;-68
2022/05/06 02:29:20;;;;;;;;;29.50;25.50;;;;;15.67;55.13;102034.69;5116902;27;45464;-66
2022/05/06 02:34:29;;;;;;;;;24.00;23.00;;;;;15.66;55.08;102031.09;5116426;27;45450;-68
2022/05/06 02:36:55;;;;;;;;;24.25;23.75;;;;;15.54;55.42;102013.69;5116467;27;45921;-68
2022/05/06 02:39:20;;;;;;;;;24.75;22.75;;;;;15.63;55.31;102032.81;5116486;27;45550;-68
2022/05/06 02:41:45;;;;;;;;;29.00;22.75;;;;;15.62;55.55;102033.66;5116460;27;46252;-68
2022/05/06 02:44:13;;;;;;;;;24.25;20.50;;;;;15.62;55.40;102029.22;5116213;27;47934;-67
2022/05/06 02:46:38;;;;;;;;;31.25;26.75;;;;;15.59;55.62;102025.50;5116307;27;45430;-69
2022/05/06 02:49:03;;;;;;;;;27.00;22.75;;;;;15.64;55.13;102035.53;5116417;27;45358;-68
2022/05/06 02:51:29;;;;;;;;;21.00;19.75;;;;;15.63;55.22;102033.72;5115794;27;45439;-68
2022/05/06 02:53:56;;;;;;;;;25.75;22.75;;;;;15.60;55.64;102038.13;5116273;27;45616;-68
2022/05/06 02:56:22;;;;;;;;;25.75;23.75;;;;;15.56;55.70;102034.44;5116222;27;45308;-68
2022/05/06 02:58:47;;;;;;;;;28.00;26.50;;;;;15.56;55.52;102036.19;5116361;27;45479;-68
2022/05/06 03:01:12;;;;;;;;;26.75;24.00;;;;;15.56;55.66;102041.56;5115800;27;45929;-68
2022/05/06 03:03:38;;;;;;;;;34.50;26.50;;;;;15.48;55.56;102038.69;5116186;27;45765;-68
2022/05/06 03:06:03;;;;;;;;;27.75;22.75;;;;;15.39;55.95;102050.16;5115918;27;45902;-68
2022/05/06 03:08:29;;;;;;;;;24.00;24.00;;;;;15.28;55.87;102055.22;5116148;27;45394;-69
2022/05/06 03:10:54;;;;;;;;;25.50;24.25;;;;;15.22;56.20;102054.13;5115264;27;51237;-68
2022/05/06 03:13:19;;;;;;;;;27.75;24.00;;;;;15.16;56.06;102052.16;5115663;27;45473;-67
2022/05/06 03:15:45;;;;;;;;;22.00;22.00;;;;;15.13;56.33;102051.16;5115947;27;45597;-68
2022/05/06 03:18:11;;;;;;;;;27.00;22.00;;;;;15.09;56.47;102050.19;5115930;27;45547;-68
2022/05/06 03:20:38;;;;;;;;;23.00;23.00;;;;;15.07;56.59;102055.50;5114997;27;45503;-67
2022/05/06 03:23:04;;;;;;;;;30.25;25.25;;;;;15.05;56.59;102037.53;5115613;27;45291;-68
2022/05/06 03:25:30;;;;;;;;;30.00;27.50;;;;;14.98;56.68;102030.13;5115533;27;45400;-66
2022/05/06 03:28:07;;;;;;;;;28.00;24.25;;;;;15.06;56.67;102051.03;5115697;27;45350;-68
2022/05/06 03:30:44;;;;;;;;;25.00;19.75;;;;;15.10;56.69;102057.41;5115463;27;45541;-67
2022/05/06 03:33:13;;;;;;;;;29.25;27.00;;;;;15.11;56.63;102054.75;5115085;27;45450;-68
2022/05/06 03:35:39;;;;;;;;;27.75;22.75;;;;;15.09;56.54;102050.19;5115289;27;45464;-66
2022/05/06 03:38:05;;;;;;;;;29.75;25.50;;;;;14.88;56.46;102019.09;5115797;27;45379;-67
2022/05/06 03:40:32;;;;;;;;;28.25;22.75;;;;;15.07;56.65;102058.22;5114979;27;45332;-66
2022/05/06 03:42:58;;;;;;;;;25.50;23.75;;;;;15.07;56.58;102055.50;5115147;27;45594;-68
2022/05/06 03:45:23;;;;;;;;;25.50;25.00;;;;;14.84;56.34;102021.66;5115374;27;45451;-66
2022/05/06 03:47:49;;;;;;;;;30.50;26.50;;;;;15.00;56.59;102049.94;5115647;27;45503;-67
2022/05/06 03:52:58;;;;;;;;;34.00;29.25;;;;;14.98;56.99;102052.56;5114908;27;45385;-68
2022/05/06 03:55:24;;;;;;;;;30.50;25.50;;;;;14.85;57.01;102048.59;5114890;27;45456;-67
2022/05/06 03:57:50;;;;;;;;;29.75;25.25;;;;;14.84;57.06;102046.78;5115231;27;45610;-68
2022/05/06 04:00:15;;;;;;;;;33.50;27.00;;;;;14.92;56.82;102063.16;5114863;27;45395;-67
2022/05/06 04:02:41;;;;;;;;;28.75;27.00;;;;;14.78;57.35;102035.81;5114934;27;45482;-67
2022/05/06 04:05:07;;;;;;;;;26.75;24.75;;;;;14.92;56.98;102066.75;5115308;27;45500;-66
2022/05/06 04:07:33;;;;;;;;;33.50;26.00;;;;;14.92;56.79;102065.84;5115198;27;45613;-68
2022/05/06 04:09:58;;;;;;;;;34.25;29.75;;;;;14.83;57.33;102061.09;5114760;27;46056;-67
2022/05/06 04:12:24;;;;;;;;;34.75;29.75;;;;;14.81;57.02;102070.00;5114602;27;45338;-67
2022/05/06 04:14:50;;;;;;;;;26.50;26.25;;;;;14.80;57.03;102071.78;5115007;27;45475;-68
2022/05/06 04:17:16;;;;;;;;;31.00;28.00;;;;;14.76;57.02;102066.25;5115327;27;45545;-68
2022/05/06 04:25:14;;;;;;;;;35.50;29.75;;;;;14.58;57.72;102075.53;5114687;27;45463;-67
2022/05/06 04:27:40;;;;;;;;;31.50;29.50;;;;;14.55;57.70;102078.13;5114340;27;45505;-66
2022/05/06 04:30:06;;;;;;;;;32.00;27.00;;;;;14.40;58.04;102053.44;5114361;27;45498;-67
2022/05/06 04:32:31;;;;;;;;;33.25;29.00;;;;;14.55;58.01;102075.44;5113950;27;45486;-66
2022/05/06 04:34:57;;;;;;;;;34.75;30.00;;;;;14.55;57.73;102072.75;5114595;27;45794;-66
2022/05/06 04:37:22;;;;;;;;;32.75;26.25;;;;;14.53;57.88;102066.41;5083266;27;45564;-68
2022/05/06 04:39:47;;;;;;;;;28.25;25.00;;;;;14.57;57.59;102085.38;5114304;27;50020;-68
2022/05/06 04:42:13;;;;;;;;;31.25;30.00;;;;;14.38;57.81;102058.78;5114236;27;48281;-68
2022/05/06 04:44:38;;;;;;;;;28.75;28.00;;;;;14.44;57.79;102071.53;5082622;27;45433;-66
2022/05/06 04:47:03;;;;;;;;;28.50;27.00;;;;;14.57;57.80;102089.88;5114338;27;45456;-67
2022/05/06 04:49:29;;;;;;;;;35.50;30.75;;;;;14.59;57.81;102092.59;5114098;27;46127;-67
2022/05/06 04:51:54;;;;;;;;;30.00;29.25;;;;;14.50;58.51;102087.81;5113920;27;45510;-68
2022/05/06 04:54:19;;;;;;;;;40.50;31.25;;;;;14.40;58.60;102086.63;5114182;27;45455;-67
2022/05/06 04:56:45;;;;;;;;;27.25;23.75;;;;;14.42;58.03;102092.97;5114777;27;45553;-67
2022/05/06 04:59:10;;;;;;;;;30.50;27.25;;;;;14.43;58.10;102089.41;5113982;27;45522;-66
2022/05/06 05:01:35;;;;;;;;;31.00;24.00;;;;;14.32;58.52;102081.00;5113526;27;47248;-66
2022/05/06 05:04:01;;;;;;;;;29.00;25.25;;;;;14.40;58.65;102083.94;5113914;27;45495;-66
2022/05/06 05:06:26;;;;;;;;;30.25;26.00;;;;;14.44;58.09;102101.09;5114272;27;45261;-68
2022/05/06 05:08:51;;;;;;;;;28.25;27.25;;;;;14.44;58.31;102107.38;5113886;27;45536;-68
2022/05/06 05:11:17;;;;;;;;;32.25;29.25;;;;;14.46;58.44;102108.34;5113821;27;45578;-68
2022/05/06 05:13:43;;;;;;;;;29.75;28.00;;;;;14.30;58.47;102076.44;5113997;27;45448;-68
2022/05/06 05:16:08;;;;;;;;;28.50;27.00;;;;;14.46;58.33;102102.06;5114845;27;45797;-67
2022/05/06 05:18:34;;;;;;;;;33.75;27.00;;;;;14.37;58.12;102091.91;5113392;27;45556;-68
2022/05/06 05:21:00;;;;;;;;;46.50;34.25;;;;;14.41;58.51;102101.91;5113524;27;45464;-68
2022/05/06 05:23:25;;;;;;;;;41.75;32.00;;;;;14.51;58.03;102104.00;5113755;27;45390;-68
2022/05/06 05:25:51;;;;;;;;;35.25;29.75;;;;;14.54;57.84;102098.72;5114162;27;45439;-68
2022/05/06 05:28:16;;;;;;;;;31.50;29.25;;;;;14.53;58.50;102104.97;5113701;27;46137;-68
2022/05/06 05:30:41;;;;;;;;;37.00;29.75;;;;;14.37;58.12;102074.00;5113551;27;45476;-68
2022/05/06 05:33:07;;;;;;;;;42.00;32.25;;;;;14.54;58.29;102105.91;5113574;27;45577;-66
2022/05/06 05:35:33;;;;;;;;;48.00;38.00;;;;;14.38;58.20;102069.53;5113525;27;45362;-68
2022/05/06 05:38:00;;;;;;;;;29.25;28.75;;;;;14.11;58.04;102018.50;5113270;27;45508;-68
2022/05/06 05:40:25;;;;;;;;;38.75;33.25;;;;;14.44;58.29;102080.47;5114846;27;45250;-68
2022/05/06 05:42:51;;;;;;;;;34.00;28.50;;;;;14.60;58.25;102114.19;5117236;27;45649;-67
2022/05/06 05:48:33;;;;;;;;;33.50;30.00;;;;;14.23;57.53;102048.44;5116294;27;45818;-68
2022/05/06 05:50:51;;;;;;;;;36.75;29.75;;;;;14.64;57.82;102121.50;5112396;27;45446;-66
2022/05/06 05:53:17;;;;;;;;;31.50;27.50;;;;;14.62;58.14;102124.97;5116268;27;45521;-67
2022/05/06 05:55:42;;;;;;;;;30.25;26.00;;;;;14.53;58.06;102109.44;5116840;27;45362;-67
2022/05/06 05:58:07;;;;;;;;;30.75;30.25;;;;;14.56;58.09;102129.28;5116440;27;46071;-66
2022/05/06 06:00:33;;;;;;;;;26.75;26.50;;;;;14.60;58.20;102124.97;5116480;27;45486;-68
2022/05/06 06:02:59;;;;;;;;;41.00;32.75;;;;;14.49;58.13;102091.41;5116707;27;45428;-70
2022/05/06 06:05:24;;;;;;;;;33.75;30.00;;;;;14.42;58.16;102078.59;5117053;27;45460;-68
2022/05/06 06:07:50;;;;;;;;;43.25;35.50;;;;;14.41;57.90;102080.38;5116032;27;46412;-68
2022/05/06 06:10:15;;;;;;;;;62.25;49.50;;;;;14.64;58.64;102099.06;5116039;27;45494;-68
2022/05/06 06:12:40;;;;;;;;;48.75;36.25;;;;;14.77;58.31;102113.81;5116096;27;45836;-69
2022/05/06 06:15:06;;;;;;;;;46.00;36.00;;;;;14.79;58.31;102104.91;5116347;27;45326;-68
2022/05/06 06:17:32;;;;;;;;;40.75;33.75;;;;;14.61;58.10;102062.22;5116254;27;45406;-69
2022/05/06 06:19:57;;;;;;;;;44.00;35.75;;;;;14.92;58.16;102112.50;5115376;27;50069;-69
2022/05/06 06:22:23;;;;;;;;;58.75;45.25;;;;;14.87;57.77;102094.41;5116503;27;45317;-67
2022/05/06 06:24:48;;;;;;;;;46.50;35.50;;;;;15.04;57.93;102113.72;5116528;27;45409;-69
2022/05/06 06:27:15;;;;;;;;;41.75;35.00;;;;;14.91;57.96;102089.16;5115877;27;45623;-68
2022/05/06 06:29:41;;;;;;;;;44.75;35.75;;;;;15.07;57.71;102111.13;5110030;27;45651;-69
2022/05/06 06:32:07;;;;;;;;;41.75;32.50;;;;;15.17;57.50;102121.31;5116046;27;45490;-67
2022/05/06 06:34:32;;;;;;;;;41.25;34.75;;;;;15.21;57.42;102120.53;5116551;27;45510;-70
2022/05/06 06:36:57;;;;;;;;;40.75;33.00;;;;;15.23;57.35;102117.91;5115502;27;45500;-68
2022/05/06 06:39:23;;;;;;;;;42.75;32.00;;;;;15.26;57.28;102126.97;5115919;27;46272;-68
2022/05/06 06:41:49;;;;;;;;;39.75;32.00;;;;;15.28;57.54;102124.31;5115931;27;45416;-68
2022/05/06 06:44:14;;;;;;;;;40.75;32.75;;;;;15.33;57.37;102121.75;5115719;27;45596;-68
2022/05/06 06:46:39;;;;;;;;;43.75;36.00;;;;;15.40;57.29;102123.75;5115222;27;45942;-66
2022/05/06 06:49:05;;;;;;;;;44.00;33.25;;;;;15.42;57.04;102122.03;5115553;27;45544;-67
2022/05/06 06:51:31;;;;;;;;;42.00;33.25;;;;;15.44;57.12;102131.03;5115329;27;45622;-67
2022/05/06 06:53:57;;;;;;;;;39.75;33.75;;;;;15.46;56.80;102118.56;5116306;27;45593;-69
2022/05/06 06:56:23;;;;;;;;;37.00;34.00;;;;;15.44;56.63;102114.88;5096716;27;46487;-66
2022/05/06 06:58:48;;;;;;;;;32.25;31.25;;;;;15.54;56.66;102125.06;5115115;27;45455;-68
2022/05/06 07:01:14;;;;;;;;;45.50;38.00;;;;;15.63;56.41;102121.72;5115514;27;45424;-68
2022/05/06 07:03:39;;;;;;;;;37.75;32.25;;;;;15.54;56.13;102102.59;5116216;27;45516;-69
2022/05/06 07:11:56;;;;;;;;;34.00;31.25;;;;;15.84;56.26;102116.94;5115266;27;45431;-67
2022/05/06 07:14:21;;;;;;;;;42.75;34.00;;;;;15.54;55.99;102057.72;5114722;27;45881;-70
2022/05/06 07:16:48;;;;;;;;;38.25;32.25;;;;;15.94;56.17;102118.09;5115213;27;46222;-69
2022/05/06 07:19:13;;;;;;;;;47.25;37.00;;;;;15.99;55.74;102113.72;5114864;27;45574;-69
2022/05/06 07:21:38;;;;;;;;;31.75;29.25;;;;;16.07;55.21;102118.41;5114954;27;45337;-69
2022/05/06 07:24:04;;;;;;;;;39.00;32.75;;;;;15.77;55.56;102061.06;5115461;27;45199;-70
2022/05/06 07:26:30;;;;;;;;;32.00;27.75;;;;;16.11;55.04;102113.13;5114926;27;46259;-69
2022/05/06 07:28:56;;;;;;;;;43.25;33.25;;;;;16.31;55.13;102115.41;5115281;27;45444;-67
2022/05/06 07:31:21;;;;;;;;;35.00;31.25;;;;;16.42;54.92;102131.88;5115010;27;45315;-67
2022/05/06 07:33:47;;;;;;;;;35.25;29.75;;;;;16.41;54.94;102122.84;5115323;27;45427;-69
2022/05/06 07:36:13;;;;;;;;;44.00;38.00;;;;;16.57;55.08;102125.06;5114812;27;45353;-67
2022/05/06 07:38:38;;;;;;;;;32.75;30.25;;;;;16.59;53.84;102127.78;5114333;27;45457;-69
2022/05/06 07:41:04;;;;;;;;;51.75;41.75;;;;;16.72;53.98;102134.38;5114170;27;45449;-67
2022/05/06 07:43:30;;;;;;;;;32.50;29.75;;;;;16.77;53.71;102130.91;5115011;27;45395;-67
2022/05/06 07:45:56;;;;;;;;;30.00;26.75;;;;;16.75;53.98;102132.66;5114578;27;46057;-68
2022/05/06 07:48:22;;;;;;;;;40.75;32.50;;;;;16.63;53.97;102102.72;5114566;27;45617;-65
2022/05/06 07:50:48;;;;;;;;;30.00;28.75;;;;;16.90;53.80;102129.44;5114308;27;45467;-67
2022/05/06 07:53:15;;;;;;;;;29.75;28.50;;;;;17.00;53.60;102124.25;5114590;27;45599;-70
2022/05/06 07:55:42;;;;;;;;;39.25;35.50;;;;;17.00;52.85;102102.66;5114439;27;46088;-68
2022/05/06 07:58:07;;;;;;;;;34.25;26.50;;;;;17.18;52.89;102123.75;5114441;27;45451;-69
2022/05/06 08:00:34;;;;;;;;;53.25;40.00;;;;;17.19;52.55;102117.44;5114373;27;45440;-71
2022/05/06 08:05:46;;;;;;;;;35.75;33.00;;;;;17.36;52.57;102118.72;5114312;27;45696;-68
2022/05/06 08:08:11;;;;;;;;;30.25;25.75;;;;;17.46;52.20;102122.53;5114204;27;45451;-67
2022/05/06 08:10:37;;;;;;;;;27.75;25.50;;;;;17.47;52.22;102108.13;5115003;27;45632;-69
2022/05/06 08:13:02;;;;;;;;;37.00;33.25;;;;;17.63;52.03;102103.94;5096074;27;45462;-68
2022/05/06 08:15:28;;;;;;;;;28.50;23.50;;;;;17.74;51.84;102113.16;5114475;27;45640;-68
2022/05/06 08:17:53;;;;;;;;;20.75;19.00;;;;;17.88;51.57;102128.75;5114281;27;45368;-69
2022/05/06 08:20:18;;;;;;;;;30.00;28.25;;;;;17.88;51.52;102126.94;5107508;27;45791;-68
2022/05/06 08:22:45;;;;;;;;;26.25;21.50;;;;;17.75;50.95;102089.72;5114757;27;46150;-67
2022/05/06 08:25:11;;;;;;;;;21.50;20.25;;;;;18.01;50.96;102115.47;5113967;27;45389;-68
2022/05/06 08:27:42;;;;;;;;;17.00;15.75;;;;;18.15;50.67;102118.44;5114221;27;45693;-68
2022/05/06 08:30:09;;;;;;;;;16.50;13.25;;;;;18.27;49.99;102122.22;5114642;27;45430;-70
2022/05/06 08:32:35;;;;;;;;;11.75;11.25;;;;;18.34;49.17;102110.59;5114820;27;45525;-68
2022/05/06 08:35:03;;;;;;;;;10.75;9.75;;;;;18.40;49.35;102114.31;5114342;27;48692;-70
2022/05/06 08:37:29;;;;;;;;;9.00;7.00;;;;;18.46;48.61;102099.97;5114056;27;45353;-68
2022/05/06 08:39:54;;;;;;;;;10.75;8.75;;;;;18.62;48.68;102113.75;5114140;27;45494;-67
2022/05/06 08:42:21;;;;;;;;;45.75;36.75;;;;;18.51;47.96;102078.38;5114541;27;45491;-68
2022/05/06 08:53:05;;;;;;;;;8.75;7.50;;;;;18.98;46.78;102109.78;5094411;27;45340;-68
2022/05/06 08:55:31;;;;;;;;;13.00;10.00;;;;;19.02;46.62;102096.28;5093920;27;46168;-68
2022/05/06 08:57:58;;;;;;;;;38.00;32.25;;;;;19.15;46.39;102111.84;5093983;27;45471;-70
2022/05/06 09:00:24;;;;;;;;;18.75;17.25;;;;;19.20;45.97;102105.53;5094664;27;45407;-68
2022/05/06 09:02:50;;;;;;;;;7.67;7.67;;;;;19.26;45.38;102108.34;5094698;27;45565;-68
2022/05/06 09:05:17;;;;;;;;;19.50;18.25;;;;;19.30;45.72;102100.28;5094123;27;46087;-68
2022/05/06 09:08:04;;;;;;;;;11.75;11.50;;;;;19.44;45.46;102116.69;5094006;27;45377;-69
2022/05/06 09:10:30;;;;;;;;;11.33;11.33;;;;;19.32;45.23;102065.97;5093731;27;45392;-69
2022/05/06 09:12:57;;;;;;;;;8.00;8.00;;;;;19.60;44.97;102095.16;5094053;27;45456;-69
2022/05/06 09:18:10;;;;;;;;;11.33;10.67;;;;;19.81;44.69;102094.50;5097293;27;45377;-71
2022/05/06 09:20:37;;;;;;;;;11.00;8.67;;;;;19.72;44.45;102067.28;5097449;27;45539;-70
2022/05/06 09:23:24;;;;;;;;;9.33;9.33;;;;;20.00;44.10;102099.22;5097431;27;45409;-69
2022/05/06 09:25:53;;;;;;;;;12.67;9.67;;;;;19.92;44.05;102073.81;5111609;27;45468;-68
2022/05/06 09:28:26;;;;;;;;;12.67;10.33;;;;;20.04;43.73;102078.44;5116477;27;45575;-68
2022/05/06 09:31:08;;;;;;;;;10.33;10.33;;;;;20.12;43.11;102082.13;5116849;27;45489;-66
2022/05/06 09:33:42;;;;;;;;;11.00;11.00;;;;;20.18;43.20;102081.28;5117133;27;45745;-68
2022/05/06 09:36:29;;;;;;;;;11.67;10.00;;;;;20.15;43.04;102070.41;5116557;27;45321;-67
2022/05/06 09:39:13;;;;;;;;;14.00;10.33;;;;;20.21;42.88;102076.78;5111086;27;45334;-68
2022/05/06 09:41:40;;;;;;;;;12.33;10.67;;;;;20.16;42.90;102091.19;5116928;27;45482;-68
2022/05/06 09:44:09;;;;;;;;;14.00;11.33;;;;;20.04;42.94;102057.63;5114037;27;45850;-69
2022/05/06 09:46:35;;;;;;;;;11.67;11.67;;;;;20.21;42.96;102071.34;5112782;27;46214;-67
2022/05/06 09:49:03;;;;;;;;;16.00;13.33;;;;;20.17;43.29;102074.03;5115940;27;45295;-68
2022/05/06 09:51:33;;;;;;;;;8.67;8.67;;;;;20.31;42.96;102077.78;5116419;27;45538;-68
2022/05/06 09:54:00;;;;;;;;;13.00;12.00;;;;;20.39;42.10;102078.72;5116765;27;45513;-69
2022/05/06 09:56:27;;;;;;;;;10.33;10.00;;;;;20.44;42.37;102074.25;5116513;27;45597;-68
2022/05/06 09:58:54;;;;;;;;;8.67;7.67;;;;;20.47;41.90;102077.88;5116330;27;45433;-67
2022/05/06 10:01:21;;;;;;;;;11.33;9.33;;;;;20.49;42.01;102063.41;5116318;27;45277;-68
2022/05/06 10:03:47;;;;;;;;;10.67;10.67;;;;;20.53;42.02;102056.19;5116169;27;45470;-67
2022/05/06 10:06:13;;;;;;;;;9.00;9.00;;;;;20.59;41.95;102077.94;5115476;27;46290;-67
2022/05/06 10:08:44;;;;;;;;;12.67;12.67;;;;;20.60;41.12;102075.22;5115886;27;45543;-67
2022/05/06 10:11:14;;;;;;;;;11.33;10.67;;;;;20.57;41.08;102064.38;5116121;27;45472;-66
2022/05/06 10:13:46;;;;;;;;;15.33;14.00;;;;;20.40;41.36;102020.81;5116074;27;45453;-68
2022/05/06 10:16:12;;;;;;;;;11.67;10.67;;;;;20.76;40.88;102072.66;5115930;27;45371;-67
2022/05/06 10:18:39;;;;;;;;;19.75;13.75;;;;;20.83;41.02;102065.44;5115593;27;45277;-67
2022/05/06 10:21:12;;;;;;;;;12.33;11.00;;;;;20.92;40.84;102068.19;5115363;27;45465;-69
2022/05/06 10:23:47;;;;;;;;;11.33;11.33;;;;;20.96;40.82;102062.78;5115813;27;45417;-68
2022/05/06 10:26:37;;;;;;;;;12.33;11.67;;;;;21.06;40.33;102058.28;5115049;27;47016;-68
2022/05/06 10:34:35;;;;;;;;;11.33;10.33;;;;;21.14;40.02;102053.78;5116348;27;45522;-68
2022/05/06 10:37:03;;;;;;;;;15.33;14.33;;;;;21.13;40.04;102056.50;5115425;27;46916;-67
2022/05/06 10:39:33;;;;;;;;;12.67;10.67;;;;;21.16;40.07;102060.13;5115492;27;45305;-67
2022/05/06 10:42:02;;;;;;;;;12.67;12.67;;;;;21.16;39.70;102051.97;5115729;27;45384;-68
2022/05/06 10:44:44;;;;;;;;;15.33;12.00;;;;;21.03;39.98;102039.25;5115862;27;45417;-67
2022/05/06 10:47:13;;;;;;;;;14.67;12.67;;;;;21.13;39.75;102049.25;5114833;27;46595;-68
2022/05/06 10:49:38;;;;;;;;;12.67;10.67;;;;;21.16;39.92;102051.06;5115230;27;45348;-66
2022/05/06 10:52:15;;;;;;;;;13.00;9.33;;;;;21.19;39.27;102040.22;5115419;27;45397;-68
2022/05/06 10:55:00;;;;;;;;;9.67;8.33;;;;;21.21;39.14;102037.50;5115632;27;45370;-69
2022/05/06 10:57:27;;;;;;;;;23.75;21.25;;;;;21.27;39.29;102034.81;5115372;27;46066;-68
2022/05/06 11:00:00;;;;;;;;;8.67;8.33;;;;;21.33;39.32;102038.47;5114984;27;45562;-67
2022/05/06 11:02:28;;;;;;;;;7.67;7.67;;;;;21.37;39.06;102033.03;5078846;27;45421;-67
2022/05/06 11:04:56;;;;;;;;;7.33;7.33;;;;;21.38;38.37;102033.00;5114011;27;45418;-70
2022/05/06 11:07:21;;;;;;;;;13.00;11.33;;;;;21.31;38.09;102031.19;5114769;27;45508;-67
2022/05/06 11:09:47;;;;;;;;;10.33;8.00;;;;;21.28;38.45;102029.38;5115542;27;45978;-68
2022/05/06 11:12:35;;;;;;;;;8.00;8.00;;;;;21.29;38.17;102030.28;5115192;27;45456;-67
2022/05/06 11:15:03;;;;;;;;;11.00;10.33;;;;;21.29;38.56;102028.47;5115060;27;45446;-68
2022/05/06 11:17:31;;;;;;;;;11.00;9.33;;;;;20.95;37.58;101963.16;5095277;27;46121;-66
2022/05/06 11:19:57;;;;;;;;;7.67;7.00;;;;;21.11;37.44;102015.72;5108536;27;45361;-67
2022/05/06 11:22:25;;;;;;;;;8.67;6.67;;;;;20.93;38.31;101999.38;5108442;27;45475;-70
2022/05/06 11:24:58;;;;;;;;;19.00;18.50;;;;;20.95;38.33;102001.22;5115518;27;45479;-68
2022/05/06 11:27:24;;;;;;;;;10.67;10.67;;;;;20.68;38.39;101950.38;5114643;27;46065;-68
2022/05/06 11:29:56;;;;;;;;;9.67;8.33;;;;;21.13;37.89;102016.63;5114699;27;45380;-67
2022/05/06 11:32:23;;;;;;;;;11.33;7.33;;;;;21.15;38.07;102013.91;5108885;27;45459;-66
2022/05/06 11:34:57;;;;;;;;;10.67;9.33;;;;;21.15;37.44;102013.91;5115062;27;45613;-68
2022/05/06 11:37:24;;;;;;;;;10.67;10.67;;;;;21.14;37.04;102014.84;5113436;27;45499;-69
2022/05/06 11:39:51;;;;;;;;;11.67;9.00;;;;;21.04;36.34;101985.84;5114758;27;45244;-66
2022/05/06 11:42:20;;;;;;;;;25.00;22.00;;;;;21.25;36.76;102013.06;5114298;27;45416;-69
2022/05/06 11:47:42;;;;;;;;;12.00;10.00;;;;;21.29;37.44;102006.72;5114251;27;45433;-69
2022/05/06 11:50:09;;;;;;;;;8.33;7.00;;;;;21.28;37.83;102004.91;5114280;27;45482;-68
2022/05/06 11:52:37;;;;;;;;;12.00;11.33;;;;;21.16;37.88;101981.31;5114298;27;45510;-69
2022/05/06 11:55:03;;;;;;;;;6.67;5.67;;;;;21.31;37.83;102010.34;5115147;27;45464;-68
2022/05/06 11:57:29;;;;;;;;;9.00;9.00;;;;;21.15;37.08;101981.31;5114363;27;46894;-67